Sherman, Connecticut
Current Conditions -  °F | °C
As of 11:19 AM on Monday 24 Nov 2014 (Local Time) from KDXR Reporting Station
Overcast Overcast  
Wind Chill: 63°   Ceiling: 800
Heat Index: 63°   Visibility: 10mi
Dew Point: 58°   Wind: 12mph
Humidity: 84%   Direction: 200°SSW
Pressure: 29.66"   Gusts: 18mph
Location:  41.57°N, 73.49°W
Report Text: KDXR 241619Z 20010G16KT 160V220 10SM BKN008 OVC014 17/14 A2966 RMK AO2 T01720144
Loading
Personal Weather Stations






























Interactive Weather Map New forecast layout! Learn more

10-Day Weather Forecast

Advertisements
Track Severe Weather on mobile